sensor_id;sensor_type;location;lat;lon;timestamp;pressure;altitude;pressure_sealevel;temperature;humidity
73063;BME280;61230;46.328;19.972;2023-07-31T00:10:30;100211.88;;;18.78;100.00
73063;BME280;61230;46.328;19.972;2023-07-31T00:12:57;100220.47;;;18.73;100.00
73063;BME280;61230;46.328;19.972;2023-07-31T00:15:25;100218.66;;;18.80;100.00
73063;BME280;61230;46.328;19.972;2023-07-31T00:17:52;100211.50;;;18.81;100.00
73063;BME280;61230;46.328;19.972;2023-07-31T00:20:21;100217.22;;;18.84;100.00
73063;BME280;61230;46.328;19.972;2023-07-31T00:22:48;100218.88;;;18.85;100.00
73063;BME280;61230;46.328;19.972;2023-07-31T00:25:16;100225.66;;;18.88;100.00
73063;BME280;61230;46.328;19.972;2023-07-31T00:27:44;100224.41;;;18.84;100.00
73063;BME280;61230;46.328;19.972;2023-07-31T00:30:13;100176.75;;;18.61;100.00
73063;BME280;61230;46.328;19.972;2023-07-31T00:32:41;100221.94;;;18.76;100.00
73063;BME280;61230;46.328;19.972;2023-07-31T00:35:09;100221.28;;;18.74;100.00
73063;BME280;61230;46.328;19.972;2023-07-31T00:37:37;100222.91;;;18.68;100.00
73063;BME280;61230;46.328;19.972;2023-07-31T00:40:05;100233.94;;;18.65;100.00
73063;BME280;61230;46.328;19.972;2023-07-31T00:42:33;100187.06;;;18.43;100.00
73063;BME280;61230;46.328;19.972;2023-07-31T00:45:01;100228.84;;;18.64;100.00
73063;BME280;61230;46.328;19.972;2023-07-31T00:47:30;100230.06;;;18.61;100.00
73063;BME280;61230;46.328;19.972;2023-07-31T00:49:58;100235.34;;;18.55;100.00
73063;BME280;61230;46.328;19.972;2023-07-31T00:52:25;100216.91;;;18.53;100.00
73063;BME280;61230;46.328;19.972;2023-07-31T00:54:53;100210.75;;;18.59;100.00
73063;BME280;61230;46.328;19.972;2023-07-31T00:57:21;100203.56;;;18.53;100.00
73063;BME280;61230;46.328;19.972;2023-07-31T00:59:51;100169.37;;;18.29;100.00
73063;BME280;61230;46.328;19.972;2023-07-31T01:02:18;100195.59;;;18.53;100.00
73063;BME280;61230;46.328;19.972;2023-07-31T01:04:46;100204.97;;;18.49;100.00
73063;BME280;61230;46.328;19.972;2023-07-31T01:07:22;100207.16;;;18.46;100.00
73063;BME280;61230;46.328;19.972;2023-07-31T01:10:04;100193.22;;;18.44;100.00
73063;BME280;61230;46.328;19.972;2023-07-31T01:12:37;100204.50;;;18.46;100.00
73063;BME280;61230;46.328;19.972;2023-07-31T01:15:07;100190.97;;;18.41;100.00
73063;BME280;61230;46.328;19.972;2023-07-31T01:17:39;100192.41;;;18.43;100.00
73063;BME280;61230;46.328;19.972;2023-07-31T01:20:23;100193.41;;;18.42;100.00
73063;BME280;61230;46.328;19.972;2023-07-31T01:28:04;100196.47;;;18.39;100.00
73063;BME280;61230;46.328;19.972;2023-07-31T01:30:35;100163.34;;;18.14;100.00
73063;BME280;61230;46.328;19.972;2023-07-31T01:33:05;100197.91;;;18.35;100.00
73063;BME280;61230;46.328;19.972;2023-07-31T01:35:39;100195.22;;;18.35;100.00
73063;BME280;61230;46.328;19.972;2023-07-31T01:38:07;100157.72;;;18.02;100.00
73063;BME280;61230;46.328;19.972;2023-07-31T01:40:34;100198.44;;;18.24;100.00
73063;BME280;61230;46.328;19.972;2023-07-31T01:43:02;100192.50;;;18.22;100.00
73063;BME280;61230;46.328;19.972;2023-07-31T01:45:30;100190.22;;;18.19;100.00
73063;BME280;61230;46.328;19.972;2023-07-31T01:47:57;100183.69;;;18.21;100.00
73063;BME280;61230;46.328;19.972;2023-07-31T01:50:25;100136.59;;;17.94;100.00
73063;BME280;61230;46.328;19.972;2023-07-31T01:52:53;100179.31;;;18.14;100.00
73063;BME280;61230;46.328;19.972;2023-07-31T01:55:20;100189.41;;;18.18;100.00
73063;BME280;61230;46.328;19.972;2023-07-31T01:57:48;100153.59;;;17.93;100.00
73063;BME280;61230;46.328;19.972;2023-07-31T02:00:16;100190.41;;;18.17;100.00
73063;BME280;61230;46.328;19.972;2023-07-31T02:02:44;100191.00;;;18.13;100.00
73063;BME280;61230;46.328;19.972;2023-07-31T02:05:11;100194.81;;;18.04;100.00
73063;BME280;61230;46.328;19.972;2023-07-31T02:07:39;100193.16;;;18.03;100.00
73063;BME280;61230;46.328;19.972;2023-07-31T02:10:07;100197.25;;;17.99;100.00
73063;BME280;61230;46.328;19.972;2023-07-31T02:12:35;100207.69;;;18.00;100.00
73063;BME280;61230;46.328;19.972;2023-07-31T02:15:03;100207.84;;;17.92;100.00
73063;BME280;61230;46.328;19.972;2023-07-31T02:17:30;100217.91;;;17.97;100.00
73063;BME280;61230;46.328;19.972;2023-07-31T02:20:00;100215.62;;;17.94;100.00
73063;BME280;61230;46.328;19.972;2023-07-31T02:22:27;100219.94;;;17.95;100.00
73063;BME280;61230;46.328;19.972;2023-07-31T02:24:55;100218.28;;;17.94;100.00
73063;BME280;61230;46.328;19.972;2023-07-31T02:27:23;100196.66;;;17.75;100.00
73063;BME280;61230;46.328;19.972;2023-07-31T02:29:55;100220.72;;;17.89;100.00
73063;BME280;61230;46.328;19.972;2023-07-31T02:32:22;100222.75;;;17.87;100.00
73063;BME280;61230;46.328;19.972;2023-07-31T02:34:50;100222.94;;;17.85;100.00
73063;BME280;61230;46.328;19.972;2023-07-31T02:37:18;100230.72;;;17.87;100.00
73063;BME280;61230;46.328;19.972;2023-07-31T02:39:46;100229.06;;;17.86;100.00
73063;BME280;61230;46.328;19.972;2023-07-31T02:42:14;100220.69;;;17.82;100.00
73063;BME280;61230;46.328;19.972;2023-07-31T02:44:42;100165.00;;;17.59;100.00
73063;BME280;61230;46.328;19.972;2023-07-31T02:47:09;100220.72;;;17.89;100.00
73063;BME280;61230;46.328;19.972;2023-07-31T02:49:37;100220.09;;;17.87;100.00
73063;BME280;61230;46.328;19.972;2023-07-31T02:52:04;100182.03;;;17.65;100.00
73063;BME280;61230;46.328;19.972;2023-07-31T02:54:33;100223.75;;;17.86;100.00
73063;BME280;61230;46.328;19.972;2023-07-31T02:57:00;100226.41;;;17.86;100.00
73063;BME280;61230;46.328;19.972;2023-07-31T02:59:28;100220.25;;;17.85;100.00
73063;BME280;61230;46.328;19.972;2023-07-31T03:01:56;100225.41;;;17.87;100.00
73063;BME280;61230;46.328;19.972;2023-07-31T03:04:25;100218.88;;;17.89;100.00
73063;BME280;61230;46.328;19.972;2023-07-31T03:06:53;100216.59;;;17.86;100.00
73063;BME280;61230;46.328;19.972;2023-07-31T03:09:21;100217.81;;;17.84;100.00
73063;BME280;61230;46.328;19.972;2023-07-31T03:11:49;100218.69;;;17.91;100.00
73063;BME280;61230;46.328;19.972;2023-07-31T03:14:16;100184.50;;;17.66;100.00
73063;BME280;61230;46.328;19.972;2023-07-31T03:16:45;100188.59;;;17.69;100.00
73063;BME280;61230;46.328;19.972;2023-07-31T03:19:12;100224.78;;;17.85;100.00
73063;BME280;61230;46.328;19.972;2023-07-31T03:21:40;100230.50;;;17.82;100.00
73063;BME280;61230;46.328;19.972;2023-07-31T03:24:08;100227.19;;;17.79;100.00
73063;BME280;61230;46.328;19.972;2023-07-31T03:26:35;100223.75;;;17.86;100.00
73063;BME280;61230;46.328;19.972;2023-07-31T03:29:04;100229.84;;;17.79;100.00
73063;BME280;61230;46.328;19.972;2023-07-31T03:31:32;100239.72;;;17.86;100.00
73063;BME280;61230;46.328;19.972;2023-07-31T03:34:00;100219.59;;;17.76;100.00
73063;BME280;61230;46.328;19.972;2023-07-31T03:36:27;100237.34;;;17.91;100.00
73063;BME280;61230;46.328;19.972;2023-07-31T03:38:56;100244.75;;;17.74;100.00
73063;BME280;61230;46.328;19.972;2023-07-31T03:41:23;100252.66;;;17.89;100.00
73063;BME280;61230;46.328;19.972;2023-07-31T03:43:51;100246.25;;;17.83;100.00
73063;BME280;61230;46.328;19.972;2023-07-31T03:46:26;100247.28;;;17.82;100.00
73063;BME280;61230;46.328;19.972;2023-07-31T03:48:54;100232.16;;;17.61;100.00
73063;BME280;61230;46.328;19.972;2023-07-31T03:51:22;100252.66;;;17.89;100.00
73063;BME280;61230;46.328;19.972;2023-07-31T03:53:50;100249.84;;;17.97;100.00
73063;BME280;61230;46.328;19.972;2023-07-31T03:56:18;100257.34;;;18.08;100.00
73063;BME280;61230;46.328;19.972;2023-07-31T03:58:45;100251.38;;;18.06;100.00
73063;BME280;61230;46.328;19.972;2023-07-31T04:01:13;100212.72;;;17.89;100.00
73063;BME280;61230;46.328;19.972;2023-07-31T04:03:41;100257.75;;;18.11;100.00
73063;BME280;61230;46.328;19.972;2023-07-31T04:06:08;100256.12;;;18.10;100.00
73063;BME280;61230;46.328;19.972;2023-07-31T04:08:37;100248.22;;;18.23;100.00
73063;BME280;61230;46.328;19.972;2023-07-31T04:11:04;100236.66;;;18.10;100.00
73063;BME280;61230;46.328;19.972;2023-07-31T04:13:32;100243.13;;;18.28;100.00
73063;BME280;61230;46.328;19.972;2023-07-31T04:16:01;100245.25;;;18.39;100.00
73063;BME280;61230;46.328;19.972;2023-07-31T04:18:29;100244.88;;;18.43;100.00
73063;BME280;61230;46.328;19.972;2023-07-31T04:20:58;100255.69;;;18.34;100.00
73063;BME280;61230;46.328;19.972;2023-07-31T04:23:26;100251.78;;;18.37;100.00
73063;BME280;61230;46.328;19.972;2023-07-31T04:25:53;100250.72;;;18.53;100.00
73063;BME280;61230;46.328;19.972;2023-07-31T04:28:21;100243.78;;;18.65;100.00
73063;BME280;61230;46.328;19.972;2023-07-31T04:30:49;100262.31;;;18.73;100.00
73063;BME280;61230;46.328;19.972;2023-07-31T04:33:17;100258.44;;;18.82;100.00
73063;BME280;61230;46.328;19.972;2023-07-31T04:35:53;100264.03;;;18.87;100.00
73063;BME280;61230;46.328;19.972;2023-07-31T04:38:22;100275.91;;;18.91;100.00
73063;BME280;61230;46.328;19.972;2023-07-31T04:40:49;100272.28;;;18.99;100.00
73063;BME280;61230;46.328;19.972;2023-07-31T04:43:17;100292.00;;;19.04;100.00
73063;BME280;61230;46.328;19.972;2023-07-31T04:45:45;100287.50;;;19.11;100.00
73063;BME280;61230;46.328;19.972;2023-07-31T04:48:15;100293.66;;;19.12;100.00
73063;BME280;61230;46.328;19.972;2023-07-31T04:50:42;100287.97;;;19.21;100.00
73063;BME280;61230;46.328;19.972;2023-07-31T04:53:10;100277.31;;;19.28;100.00
73063;BME280;61230;46.328;19.972;2023-07-31T04:55:38;100292.31;;;19.29;100.00
73063;BME280;61230;46.328;19.972;2023-07-31T04:58:05;100256.53;;;19.17;100.00
73063;BME280;61230;46.328;19.972;2023-07-31T05:00:33;100294.16;;;19.35;100.00
73063;BME280;61230;46.328;19.972;2023-07-31T05:03:00;100295.63;;;19.37;100.00
73063;BME280;61230;46.328;19.972;2023-07-31T05:05:28;100296.06;;;19.41;100.00
73063;BME280;61230;46.328;19.972;2023-07-31T05:07:56;100293.19;;;19.42;100.00
73063;BME280;61230;46.328;19.972;2023-07-31T05:10:23;100294.44;;;19.46;100.00
73063;BME280;61230;46.328;19.972;2023-07-31T05:12:51;100260.06;;;19.24;100.00
73063;BME280;61230;46.328;19.972;2023-07-31T05:15:19;100256.56;;;19.23;100.00
73063;BME280;61230;46.328;19.972;2023-07-31T05:17:46;100287.47;;;19.59;100.00
73063;BME280;61230;46.328;19.972;2023-07-31T05:20:14;100287.06;;;19.55;100.00
73063;BME280;61230;46.328;19.972;2023-07-31T05:22:42;100287.69;;;19.70;100.00
73063;BME280;61230;46.328;19.972;2023-07-31T05:25:10;100293.50;;;19.80;100.00
73063;BME280;61230;46.328;19.972;2023-07-31T05:27:37;100292.25;;;19.83;100.00
73063;BME280;61230;46.328;19.972;2023-07-31T05:30:05;100295.56;;;19.91;100.00
73063;BME280;61230;46.328;19.972;2023-07-31T05:32:33;100297.41;;;19.91;100.00
73063;BME280;61230;46.328;19.972;2023-07-31T05:35:01;100287.13;;;19.75;100.00
73063;BME280;61230;46.328;19.972;2023-07-31T05:37:28;100293.09;;;20.03;100.00
73063;BME280;61230;46.328;19.972;2023-07-31T05:39:56;100295.13;;;19.81;100.00
73063;BME280;61230;46.328;19.972;2023-07-31T05:42:23;100260.19;;;19.76;100.00
73063;BME280;61230;46.328;19.972;2023-07-31T05:44:52;100303.97;;;20.08;100.00
73063;BME280;61230;46.328;19.972;2023-07-31T05:47:19;100314.87;;;20.13;100.00
73063;BME280;61230;46.328;19.972;2023-07-31T05:49:48;100310.19;;;20.28;100.00
73063;BME280;61230;46.328;19.972;2023-07-31T05:52:16;100309.13;;;20.29;100.00
73063;BME280;61230;46.328;19.972;2023-07-31T05:54:44;100311.00;;;20.42;100.00
73063;BME280;61230;46.328;19.972;2023-07-31T05:57:13;100310.38;;;20.33;100.00
73063;BME280;61230;46.328;19.972;2023-07-31T05:59:41;100320.25;;;20.39;100.00
73063;BME280;61230;46.328;19.972;2023-07-31T06:02:08;100329.47;;;20.43;100.00
73063;BME280;61230;46.328;19.972;2023-07-31T06:04:36;100329.50;;;20.30;100.00
73063;BME280;61230;46.328;19.972;2023-07-31T06:07:04;100284.06;;;20.11;100.00
73063;BME280;61230;46.328;19.972;2023-07-31T06:09:31;100330.09;;;20.72;100.00
73063;BME280;61230;46.328;19.972;2023-07-31T06:11:59;100331.84;;;21.04;100.00
73063;BME280;61230;46.328;19.972;2023-07-31T06:14:27;100287.69;;;20.75;100.00
73063;BME280;61230;46.328;19.972;2023-07-31T06:16:54;100315.59;;;21.05;100.00
73063;BME280;61230;46.328;19.972;2023-07-31T06:19:22;100300.84;;;21.41;100.00
73063;BME280;61230;46.328;19.972;2023-07-31T06:21:49;100312.31;;;21.54;100.00
73063;BME280;61230;46.328;19.972;2023-07-31T06:24:17;100301.44;;;21.43;100.00
73063;BME280;61230;46.328;19.972;2023-07-31T06:26:48;100309.91;;;21.77;100.00
73063;BME280;61230;46.328;19.972;2023-07-31T06:29:15;100303.81;;;21.64;97.49
73063;BME280;61230;46.328;19.972;2023-07-31T06:31:43;100314.87;;;21.74;99.25
73063;BME280;61230;46.328;19.972;2023-07-31T06:34:11;100308.28;;;21.76;96.79
73063;BME280;61230;46.328;19.972;2023-07-31T06:36:38;100272.50;;;21.64;97.14
73063;BME280;61230;46.328;19.972;2023-07-31T06:39:06;100317.53;;;21.81;95.88
73063;BME280;61230;46.328;19.972;2023-07-31T06:41:34;100319.13;;;21.88;93.17
73063;BME280;61230;46.328;19.972;2023-07-31T06:44:01;100318.19;;;21.76;94.27
73063;BME280;61230;46.328;19.972;2023-07-31T06:46:29;100321.13;;;21.68;92.28
73063;BME280;61230;46.328;19.972;2023-07-31T06:48:57;100333.50;;;21.62;93.00
73063;BME280;61230;46.328;19.972;2023-07-31T06:51:24;100340.28;;;21.65;92.22
73063;BME280;61230;46.328;19.972;2023-07-31T06:53:52;100303.22;;;21.62;92.36
73063;BME280;61230;46.328;19.972;2023-07-31T06:56:21;100311.09;;;21.57;89.26
73063;BME280;61230;46.328;19.972;2023-07-31T06:58:48;100347.38;;;21.84;89.43
73063;BME280;61230;46.328;19.972;2023-07-31T07:01:16;100347.25;;;22.10;88.83
73063;BME280;61230;46.328;19.972;2023-07-31T07:03:44;100346.16;;;22.43;85.75
73063;BME280;61230;46.328;19.972;2023-07-31T07:06:12;100346.16;;;22.43;84.78
73063;BME280;61230;46.328;19.972;2023-07-31T07:08:39;100340.06;;;22.54;83.50
73063;BME280;61230;46.328;19.972;2023-07-31T07:11:07;100345.00;;;22.57;82.17
73063;BME280;61230;46.328;19.972;2023-07-31T07:13:35;100354.69;;;22.58;80.98
73063;BME280;61230;46.328;19.972;2023-07-31T07:16:06;100350.34;;;22.57;79.74
73063;BME280;61230;46.328;19.972;2023-07-31T07:18:33;100344.63;;;22.53;78.23
73063;BME280;61230;46.328;19.972;2023-07-31T07:21:03;100342.25;;;22.63;79.09
73063;BME280;61230;46.328;19.972;2023-07-31T07:23:31;100332.91;;;22.72;80.48
73063;BME280;61230;46.328;19.972;2023-07-31T07:25:59;100339.66;;;22.81;79.95
73063;BME280;61230;46.328;19.972;2023-07-31T07:28:26;100345.00;;;22.81;80.20
73063;BME280;61230;46.328;19.972;2023-07-31T07:30:55;100340.44;;;22.82;76.70
73063;BME280;61230;46.328;19.972;2023-07-31T07:33:23;100304.50;;;22.65;76.98
73063;BME280;61230;46.328;19.972;2023-07-31T07:35:51;100335.06;;;22.82;73.41
73063;BME280;61230;46.328;19.972;2023-07-31T07:38:18;100304.31;;;22.60;74.11
73063;BME280;61230;46.328;19.972;2023-07-31T07:40:46;100347.47;;;22.83;72.22
73063;BME280;61230;46.328;19.972;2023-07-31T07:43:17;100341.78;;;22.91;73.08
73063;BME280;61230;46.328;19.972;2023-07-31T07:45:45;100348.06;;;23.03;72.51
73063;BME280;61230;46.328;19.972;2023-07-31T07:48:12;100349.31;;;23.19;71.66
73063;BME280;61230;46.328;19.972;2023-07-31T07:50:40;100310.56;;;22.97;70.93
73063;BME280;61230;46.328;19.972;2023-07-31T07:53:08;100356.88;;;23.28;71.63
73063;BME280;61230;46.328;19.972;2023-07-31T07:55:35;100339.94;;;23.28;70.54
73063;BME280;61230;46.328;19.972;2023-07-31T07:58:03;100344.94;;;23.24;67.15
73063;BME280;61230;46.328;19.972;2023-07-31T08:00:30;100355.97;;;23.16;69.62
73063;BME280;61230;46.328;19.972;2023-07-31T08:02:58;100356.34;;;23.02;68.70
73063;BME280;61230;46.328;19.972;2023-07-31T08:05:26;100344.19;;;22.99;68.90
73063;BME280;61230;46.328;19.972;2023-07-31T08:07:54;100352.91;;;22.95;68.29
73063;BME280;61230;46.328;19.972;2023-07-31T08:10:21;100351.66;;;22.97;69.54
73063;BME280;61230;46.328;19.972;2023-07-31T08:12:49;100350.16;;;23.01;70.27
73063;BME280;61230;46.328;19.972;2023-07-31T08:15:16;100342.41;;;22.93;70.66
73063;BME280;61230;46.328;19.972;2023-07-31T08:17:44;100315.03;;;22.60;71.80
73063;BME280;61230;46.328;19.972;2023-07-31T08:20:12;100342.63;;;22.92;73.68
73063;BME280;61230;46.328;19.972;2023-07-31T08:22:39;100345.53;;;22.90;72.79
73063;BME280;61230;46.328;19.972;2023-07-31T08:25:08;100334.19;;;22.88;72.38
73063;BME280;61230;46.328;19.972;2023-07-31T08:27:35;100316.72;;;22.79;69.86
73063;BME280;61230;46.328;19.972;2023-07-31T08:30:03;100359.53;;;23.10;68.62
73063;BME280;61230;46.328;19.972;2023-07-31T08:32:31;100342.72;;;23.21;67.25
73063;BME280;61230;46.328;19.972;2023-07-31T08:34:59;100341.59;;;23.29;67.34
73063;BME280;61230;46.328;19.972;2023-07-31T08:37:26;100344.63;;;23.51;67.92
73063;BME280;61230;46.328;19.972;2023-07-31T08:39:54;100335.63;;;23.75;67.26
73063;BME280;61230;46.328;19.972;2023-07-31T08:42:22;100317.50;;;23.70;66.25
73063;BME280;61230;46.328;19.972;2023-07-31T08:44:50;100339.91;;;23.94;64.87
73063;BME280;61230;46.328;19.972;2023-07-31T08:47:19;100340.09;;;23.81;60.96
73063;BME280;61230;46.328;19.972;2023-07-31T08:49:47;100339.53;;;24.20;62.23
73063;BME280;61230;46.328;19.972;2023-07-31T08:52:14;100332.88;;;24.34;61.14
73063;BME280;61230;46.328;19.972;2023-07-31T08:54:42;100345.03;;;24.37;58.94
73063;BME280;61230;46.328;19.972;2023-07-31T08:57:11;100340.94;;;24.23;56.53
73063;BME280;61230;46.328;19.972;2023-07-31T08:59:39;100299.81;;;24.04;54.74
73063;BME280;61230;46.328;19.972;2023-07-31T09:02:08;100345.75;;;24.55;53.79
73063;BME280;61230;46.328;19.972;2023-07-31T09:04:36;100346.69;;;24.49;51.46
73063;BME280;61230;46.328;19.972;2023-07-31T09:07:05;100343.19;;;24.49;50.49
73063;BME280;61230;46.328;19.972;2023-07-31T09:09:33;100313.81;;;24.47;49.31
73063;BME280;61230;46.328;19.972;2023-07-31T09:12:01;100349.47;;;24.78;52.18
73063;BME280;61230;46.328;19.972;2023-07-31T09:14:29;100344.59;;;24.63;50.32
73063;BME280;61230;46.328;19.972;2023-07-31T09:16:58;100345.87;;;24.72;48.47
73063;BME280;61230;46.328;19.972;2023-07-31T09:19:29;100341.22;;;24.91;47.53
73063;BME280;61230;46.328;19.972;2023-07-31T09:21:57;100317.22;;;24.54;45.99
73063;BME280;61230;46.328;19.972;2023-07-31T09:24:29;100354.44;;;24.81;46.75
73063;BME280;61230;46.328;19.972;2023-07-31T09:26:59;100345.06;;;24.72;45.07
73063;BME280;61230;46.328;19.972;2023-07-31T09:29:27;100346.34;;;24.81;46.34
73063;BME280;61230;46.328;19.972;2023-07-31T09:31:55;100317.34;;;24.59;45.93
73063;BME280;61230;46.328;19.972;2023-07-31T09:34:37;100340.62;;;24.77;45.34
73063;BME280;61230;46.328;19.972;2023-07-31T09:37:08;100342.06;;;24.80;45.51
73063;BME280;61230;46.328;19.972;2023-07-31T09:39:46;100348.22;;;25.03;46.61
73063;BME280;61230;46.328;19.972;2023-07-31T09:42:24;100345.09;;;24.83;45.46
73063;BME280;61230;46.328;19.972;2023-07-31T09:44:52;100333.34;;;24.89;44.82
73063;BME280;61230;46.328;19.972;2023-07-31T09:47:23;100331.84;;;24.93;46.66
73063;BME280;61230;46.328;19.972;2023-07-31T09:49:52;100316.34;;;25.12;46.79
73063;BME280;61230;46.328;19.972;2023-07-31T09:52:20;100322.06;;;25.15;46.62
73063;BME280;61230;46.328;19.972;2023-07-31T09:54:48;100331.94;;;25.10;46.64
73063;BME280;61230;46.328;19.972;2023-07-31T09:57:16;100319.03;;;25.12;46.90
73063;BME280;61230;46.328;19.972;2023-07-31T09:59:46;100325.78;;;25.26;49.14
73063;BME280;61230;46.328;19.972;2023-07-31T10:02:17;100316.91;;;25.26;48.16
73063;BME280;61230;46.328;19.972;2023-07-31T10:04:48;100319.34;;;25.27;47.45
73063;BME280;61230;46.328;19.972;2023-07-31T10:07:18;100317.22;;;25.29;46.36
73063;BME280;61230;46.328;19.972;2023-07-31T10:09:46;100321.28;;;24.92;46.45
73063;BME280;61230;46.328;19.972;2023-07-31T10:12:15;100318.37;;;25.45;45.82
73063;BME280;61230;46.328;19.972;2023-07-31T10:14:46;100312.72;;;25.58;45.74
73063;BME280;61230;46.328;19.972;2023-07-31T10:17:15;100320.44;;;25.54;46.49
73063;BME280;61230;46.328;19.972;2023-07-31T10:19:44;100312.16;;;25.44;45.66
73063;BME280;61230;46.328;19.972;2023-07-31T10:22:12;100308.97;;;25.59;45.73
73063;BME280;61230;46.328;19.972;2023-07-31T10:24:42;100311.72;;;25.47;44.28
73063;BME280;61230;46.328;19.972;2023-07-31T10:27:10;100321.72;;;25.63;45.39
73063;BME280;61230;46.328;19.972;2023-07-31T10:29:41;100313.06;;;25.61;45.07
73063;BME280;61230;46.328;19.972;2023-07-31T10:32:11;100269.19;;;25.66;45.64
73063;BME280;61230;46.328;19.972;2023-07-31T10:34:40;100306.38;;;25.81;43.13
73063;BME280;61230;46.328;19.972;2023-07-31T10:37:28;100306.94;;;26.11;42.49
73063;BME280;61230;46.328;19.972;2023-07-31T10:40:02;100303.47;;;25.82;42.06
73063;BME280;61230;46.328;19.972;2023-07-31T10:42:35;100291.44;;;25.90;42.75
73063;BME280;61230;46.328;19.972;2023-07-31T10:45:08;100290.88;;;25.71;43.19
73063;BME280;61230;46.328;19.972;2023-07-31T10:47:43;100295.47;;;26.37;44.87
73063;BME280;61230;46.328;19.972;2023-07-31T10:50:22;100288.97;;;25.71;40.55
73063;BME280;61230;46.328;19.972;2023-07-31T10:52:55;100260.69;;;25.57;41.03
73063;BME280;61230;46.328;19.972;2023-07-31T10:55:41;100290.97;;;25.93;40.88
73063;BME280;61230;46.328;19.972;2023-07-31T11:00:40;100249.47;;;26.10;39.46
73063;BME280;61230;46.328;19.972;2023-07-31T11:03:13;100288.78;;;26.23;39.50
73063;BME280;61230;46.328;19.972;2023-07-31T11:10:39;100292.31;;;26.23;40.76
73063;BME280;61230;46.328;19.972;2023-07-31T11:13:07;100287.34;;;26.54;41.12
73063;BME280;61230;46.328;19.972;2023-07-31T11:15:34;100282.97;;;26.86;44.17
73063;BME280;61230;46.328;19.972;2023-07-31T11:18:02;100285.00;;;26.57;43.29
73063;BME280;61230;46.328;19.972;2023-07-31T11:20:37;100253.47;;;26.41;42.69
73063;BME280;61230;46.328;19.972;2023-07-31T11:23:09;100283.94;;;26.58;40.56
73063;BME280;61230;46.328;19.972;2023-07-31T11:25:39;100289.72;;;26.83;40.30
73063;BME280;61230;46.328;19.972;2023-07-31T11:28:12;100285.78;;;27.13;41.42
73063;BME280;61230;46.328;19.972;2023-07-31T11:30:41;100281.44;;;26.35;39.80
73063;BME280;61230;46.328;19.972;2023-07-31T11:33:11;100278.34;;;26.81;38.60
73063;BME280;61230;46.328;19.972;2023-07-31T11:35:46;100274.50;;;26.39;40.09
73063;BME280;61230;46.328;19.972;2023-07-31T11:38:28;100280.13;;;26.93;41.25
73063;BME280;61230;46.328;19.972;2023-07-31T11:40:58;100282.50;;;26.89;39.19
73063;BME280;61230;46.328;19.972;2023-07-31T11:43:26;100271.06;;;27.04;42.46
73063;BME280;61230;46.328;19.972;2023-07-31T11:45:58;100246.19;;;26.80;39.83
73063;BME280;61230;46.328;19.972;2023-07-31T11:48:31;100282.50;;;26.89;41.75
73063;BME280;61230;46.328;19.972;2023-07-31T11:51:05;100283.44;;;27.00;39.92
73063;BME280;61230;46.328;19.972;2023-07-31T11:53:43;100287.50;;;26.80;39.65
73063;BME280;61230;46.328;19.972;2023-07-31T11:56:17;100283.75;;;26.81;40.08
73063;BME280;61230;46.328;19.972;2023-07-31T11:58:47;100268.59;;;27.02;41.88
73063;BME280;61230;46.328;19.972;2023-07-31T12:01:18;100269.94;;;27.21;42.19
73063;BME280;61230;46.328;19.972;2023-07-31T12:03:47;100272.75;;;26.71;40.65
73063;BME280;61230;46.328;19.972;2023-07-31T12:06:15;100266.47;;;26.66;43.41
73063;BME280;61230;46.328;19.972;2023-07-31T12:08:42;100252.97;;;26.66;42.45
73063;BME280;61230;46.328;19.972;2023-07-31T12:11:10;100262.91;;;26.99;44.55
73063;BME280;61230;46.328;19.972;2023-07-31T12:13:38;100260.16;;;26.77;39.92
73063;BME280;61230;46.328;19.972;2023-07-31T12:16:05;100253.91;;;26.93;40.96
73063;BME280;61230;46.328;19.972;2023-07-31T12:18:35;100260.03;;;26.67;40.77
73063;BME280;61230;46.328;19.972;2023-07-31T12:21:08;100246.03;;;26.70;40.73
73063;BME280;61230;46.328;19.972;2023-07-31T12:23:37;100247.50;;;26.99;40.56
73063;BME280;61230;46.328;19.972;2023-07-31T12:26:06;100251.59;;;26.63;40.09
73063;BME280;61230;46.328;19.972;2023-07-31T12:28:36;100219.97;;;27.02;42.39
73063;BME280;61230;46.328;19.972;2023-07-31T12:31:13;100204.50;;;27.19;43.17
73063;BME280;61230;46.328;19.972;2023-07-31T12:33:41;100234.06;;;27.04;43.08
73063;BME280;61230;46.328;19.972;2023-07-31T12:36:11;100241.22;;;26.94;43.39
73063;BME280;61230;46.328;19.972;2023-07-31T12:38:40;100234.34;;;27.08;41.87
73063;BME280;61230;46.328;19.972;2023-07-31T12:41:08;100227.97;;;26.70;41.61
73063;BME280;61230;46.328;19.972;2023-07-31T12:43:38;100233.28;;;26.27;39.23
73063;BME280;61230;46.328;19.972;2023-07-31T12:46:06;100228.88;;;26.21;41.47
73063;BME280;61230;46.328;19.972;2023-07-31T12:48:36;100232.91;;;26.40;40.55
73063;BME280;61230;46.328;19.972;2023-07-31T12:51:04;100193.00;;;25.87;39.75
73063;BME280;61230;46.328;19.972;2023-07-31T12:53:34;100224.53;;;26.58;41.19
73063;BME280;61230;46.328;19.972;2023-07-31T12:56:02;100214.09;;;26.83;42.43
73063;BME280;61230;46.328;19.972;2023-07-31T12:58:29;100214.63;;;26.42;42.36
73063;BME280;61230;46.328;19.972;2023-07-31T13:00:57;100213.84;;;26.25;39.72
73063;BME280;61230;46.328;19.972;2023-07-31T13:03:24;100206.44;;;26.37;41.01
73063;BME280;61230;46.328;19.972;2023-07-31T13:05:53;100205.88;;;26.57;39.78